createdAt,value
2018-11-01T00:12:16.137Z,5.37
2018-11-01T00:17:24.016Z,7.50
2018-11-01T00:23:11.119Z,6.20
2018-11-01T00:28:15.027Z,7.60
2018-11-01T00:33:20.694Z,12.27
2018-11-01T00:38:24.587Z,14.30
2018-11-01T00:49:19.951Z,6.90
2018-11-01T00:54:23.836Z,5.03
2018-11-01T00:59:27.806Z,5.70
2018-11-01T01:04:36.525Z,7.50
2018-11-01T01:09:41.784Z,5.40
2018-11-01T01:14:45.819Z,5.70
2018-11-01T01:19:50.151Z,6.83
2018-11-01T01:24:53.436Z,5.90
2018-11-01T01:29:56.962Z,6.50
2018-11-01T01:35:01.077Z,6.23
2018-11-01T01:40:12.274Z,6.67
2018-11-01T01:45:27.420Z,5.83
2018-11-01T01:50:32.041Z,5.80
2018-11-01T01:55:36.141Z,5.07
2018-11-01T02:00:45.794Z,5.63
2018-11-01T02:05:49.603Z,5.90
2018-11-01T02:10:58.402Z,4.63
2018-11-01T02:22:03.794Z,5.30
2018-11-01T02:27:09.303Z,4.57
2018-11-01T02:32:12.976Z,5.30
2018-11-01T02:37:16.924Z,4.50
2018-11-01T02:42:21.343Z,4.50
2018-11-01T02:47:25.523Z,7.70
2018-11-01T02:52:33.123Z,4.60
2018-11-01T02:57:46.094Z,8.00
2018-11-01T03:02:51.401Z,5.07
2018-11-01T03:07:56.182Z,5.50
2018-11-01T03:13:00.505Z,5.13
2018-11-01T03:18:04.803Z,5.03
2018-11-01T03:23:18.251Z,5.00
2018-11-01T03:28:31.559Z,3.90
2018-11-01T03:33:45.894Z,15.60
2018-11-01T03:38:50.862Z,4.53
2018-11-01T03:43:54.959Z,4.93
2018-11-01T03:48:59.990Z,5.20
2018-11-01T03:54:10.570Z,4.17
2018-11-01T03:59:15.246Z,3.73
2018-11-01T04:04:18.949Z,6.43
2018-11-01T04:09:22.291Z,3.97
2018-11-01T04:14:26.893Z,3.43
2018-11-01T04:19:30.714Z,5.50
2018-11-01T04:24:41.328Z,4.03
2018-11-01T04:29:53.227Z,3.30
2018-11-01T04:35:05.738Z,4.87
2018-11-01T04:40:24.733Z,5.03
2018-11-01T04:45:37.538Z,5.63
2018-11-01T04:50:50.109Z,4.47
2018-11-01T04:55:54.684Z,8.30
2018-11-01T05:06:16.837Z,6.20
2018-11-01T05:11:30.475Z,4.80
2018-11-01T05:16:35.445Z,11.50
2018-11-01T05:21:43.265Z,5.43
2018-11-01T05:26:57.056Z,6.20
2018-11-01T05:32:07.039Z,4.67
2018-11-01T05:37:11.219Z,4.13
2018-11-01T05:42:14.810Z,4.53
2018-11-01T05:47:18.379Z,4.37
2018-11-01T05:52:22.249Z,3.80
2018-11-01T05:57:25.863Z,3.73
2018-11-01T06:02:36.027Z,3.83
2018-11-01T06:07:48.862Z,4.60
2018-11-01T06:12:54.118Z,4.13
2018-11-01T06:18:06.649Z,4.83
2018-11-01T06:23:15.296Z,3.77
2018-11-01T06:28:19.957Z,9.10
2018-11-01T06:33:27.569Z,5.13
2018-11-01T06:38:31.544Z,4.70
2018-11-01T06:43:34.929Z,6.00
2018-11-01T06:48:38.348Z,5.47
2018-11-01T06:53:41.867Z,5.10
2018-11-01T06:58:54.600Z,7.13
2018-11-01T07:04:06.604Z,4.43
2018-11-01T07:09:21.134Z,4.73
2018-11-01T07:14:27.054Z,5.67
2018-11-01T07:19:34.411Z,5.00
2018-11-01T07:24:38.425Z,6.93
2018-11-01T07:29:45.954Z,4.90
2018-11-01T07:34:54.596Z,4.97
2018-11-01T07:40:00.179Z,4.47
2018-11-01T07:45:04.142Z,4.73
2018-11-01T07:50:16.003Z,4.50
2018-11-01T07:55:21.644Z,6.07
2018-11-01T08:00:34.804Z,4.70
2018-11-01T08:05:38.993Z,7.90
2018-11-01T08:10:42.316Z,4.60
2018-11-01T08:15:45.677Z,5.70
2018-11-01T08:20:50.046Z,4.90
2018-11-01T08:25:53.779Z,4.17
2018-11-01T08:31:00.835Z,8.10
2018-11-01T08:36:05.343Z,5.60
2018-11-01T08:41:11.308Z,4.43
2018-11-01T08:46:14.673Z,6.43
2018-11-01T08:51:18.111Z,8.70
2018-11-01T08:56:40.546Z,6.57
2018-11-01T09:02:05.993Z,7.10
2018-11-01T09:07:14.214Z,7.60
2018-11-01T09:12:21.740Z,5.80
2018-11-01T09:17:28.888Z,5.33
2018-11-01T09:22:46.822Z,6.67
2018-11-01T09:27:52.770Z,5.50
2018-11-01T09:32:55.976Z,7.70
2018-11-01T09:49:03.865Z,10.27
2018-11-01T09:54:07.925Z,9.07
2018-11-01T09:59:11.591Z,8.20
2018-11-01T10:04:15.466Z,6.63
2018-11-01T10:09:19.211Z,7.00
2018-11-01T10:14:22.900Z,7.60
2018-11-01T10:19:26.494Z,4.83
2018-11-01T10:24:30.200Z,5.93
2018-11-01T10:29:57.442Z,10.70
2018-11-01T10:35:04.854Z,7.47
2018-11-01T10:40:10.766Z,11.03
2018-11-01T10:45:24.689Z,5.67
2018-11-01T10:50:32.356Z,5.33
2018-11-01T10:55:36.073Z,6.20
2018-11-01T11:00:55.212Z,6.67
2018-11-01T11:06:10.063Z,7.27
2018-11-01T11:11:14.010Z,7.47
2018-11-01T11:16:17.732Z,9.57
2018-11-01T11:21:26.224Z,6.10
2018-11-01T11:26:42.754Z,16.07
2018-11-01T11:31:49.506Z,6.30
2018-11-01T11:36:53.210Z,5.60
2018-11-01T11:41:56.955Z,10.70
2018-11-01T11:47:09.123Z,6.70
2018-11-01T11:52:14.090Z,6.53
2018-11-01T11:57:17.574Z,6.90
2018-11-01T12:02:21.422Z,7.43
2018-11-01T12:07:25.154Z,10.47
2018-11-01T12:12:29.311Z,10.87
2018-11-01T12:17:32.585Z,8.50
2018-11-01T12:22:35.942Z,10.80
2018-11-01T12:27:39.361Z,13.93
2018-11-01T12:32:42.712Z,10.37
2018-11-01T12:37:48.215Z,7.97
2018-11-01T12:42:54.121Z,17.77
2018-11-01T12:47:58.030Z,18.90
2018-11-01T12:53:02.799Z,20.50
2018-11-01T12:58:06.207Z,17.70
2018-11-01T13:03:09.881Z,22.17
2018-11-01T13:08:13.520Z,26.07
2018-11-01T13:13:17.085Z,18.70
2018-11-01T13:19:24.920Z,17.37
2018-11-01T13:24:29.246Z,21.10
2018-11-01T13:29:33.132Z,15.00
2018-11-01T13:34:36.858Z,22.60
2018-11-01T13:39:40.418Z,19.13
2018-11-01T13:44:43.637Z,33.10
2018-11-01T13:49:47.683Z,18.17
2018-11-01T13:54:51.294Z,18.40
2018-11-01T13:59:55.009Z,19.00
2018-11-01T14:04:58.573Z,22.27
2018-11-01T14:10:01.949Z,25.30
2018-11-01T14:15:05.986Z,27.97
2018-11-01T14:20:16.466Z,25.97
2018-11-01T14:25:20.769Z,23.27
2018-11-01T14:30:24.740Z,28.50
2018-11-01T14:35:28.450Z,21.83
2018-11-01T14:40:31.868Z,36.53
2018-11-01T14:45:36.924Z,29.20
2018-11-01T14:50:42.064Z,23.47
2018-11-01T14:55:47.228Z,27.77
2018-11-01T15:00:49.390Z,28.93
2018-11-01T15:05:53.176Z,34.07
2018-11-01T15:10:57.002Z,28.97
2018-11-01T15:16:00.198Z,19.63
2018-11-01T15:21:03.537Z,22.10
2018-11-01T15:26:07.474Z,21.53
2018-11-01T15:31:15.466Z,19.70
2018-11-01T15:36:18.876Z,26.50
2018-11-01T15:41:22.330Z,30.07
2018-11-01T15:46:26.771Z,31.00
2018-11-01T15:51:34.705Z,29.70
2018-11-01T15:56:38.578Z,24.03
2018-11-01T16:01:43.514Z,34.10
2018-11-01T16:06:48.016Z,22.70
2018-11-01T16:11:51.888Z,27.70
2018-11-01T16:16:57.854Z,26.90
2018-11-01T16:22:10.294Z,24.77
2018-11-01T16:27:14.075Z,23.07
2018-11-01T16:32:17.564Z,26.07
2018-11-01T16:37:21.815Z,18.13
2018-11-01T16:42:26.132Z,25.77
2018-11-01T16:47:29.490Z,25.63
2018-11-01T16:52:33.618Z,21.77
2018-11-01T16:57:37.449Z,33.73
2018-11-01T17:02:41.626Z,25.77
2018-11-01T17:07:45.256Z,27.77
2018-11-01T17:12:48.996Z,42.20
2018-11-01T17:17:52.785Z,25.87
2018-11-01T17:23:00.603Z,21.10
2018-11-01T17:28:05.877Z,28.53
2018-11-01T17:33:09.683Z,23.57
2018-11-01T17:38:13.966Z,34.33
2018-11-01T17:43:17.932Z,34.30
2018-11-01T17:48:21.363Z,42.40
2018-11-01T17:53:25.585Z,33.10
2018-11-01T17:58:29.312Z,30.73
2018-11-01T18:03:32.838Z,44.33
2018-11-01T18:08:36.678Z,39.10
2018-11-01T18:13:42.422Z,41.10
2018-11-01T18:18:49.060Z,28.23
2018-11-01T18:23:52.671Z,44.60
2018-11-01T18:29:09.881Z,32.33
2018-11-01T18:34:16.933Z,26.30
2018-11-01T18:39:21.498Z,26.00
2018-11-01T18:44:25.074Z,24.70
2018-11-01T18:49:34.846Z,33.93
2018-11-01T18:54:38.402Z,36.10
2018-11-01T18:59:42.056Z,44.43
2018-11-01T19:04:48.447Z,46.57
2018-11-01T19:09:55.337Z,33.70
2018-11-01T19:14:59.244Z,31.13
2018-11-01T19:20:02.980Z,59.67
2018-11-01T19:25:06.908Z,39.67
2018-11-01T19:30:11.978Z,31.50
2018-11-01T19:35:15.933Z,29.23
2018-11-01T19:40:19.486Z,29.57
2018-11-01T19:45:25.188Z,30.80
2018-11-01T19:50:28.489Z,36.33
2018-11-01T19:55:32.668Z,26.20
2018-11-01T20:00:37.492Z,23.93
2018-11-01T20:05:43.788Z,23.23
2018-11-01T20:10:55.068Z,37.67
2018-11-01T20:15:59.826Z,20.50
2018-11-01T20:21:03.763Z,19.30
2018-11-01T20:26:09.023Z,25.90
2018-11-01T20:31:12.338Z,23.53
2018-11-01T20:36:20.482Z,23.37
2018-11-01T20:41:24.850Z,23.77
2018-11-01T20:46:28.372Z,30.80
2018-11-01T20:51:32.393Z,23.50
2018-11-01T20:56:36.077Z,32.20
2018-11-01T21:01:39.931Z,25.10
2018-11-01T21:06:48.954Z,37.83
2018-11-01T21:11:57.635Z,38.33
2018-11-01T21:17:08.449Z,37.43
2018-11-01T21:22:14.515Z,48.23
2018-11-01T21:27:19.440Z,35.60
2018-11-01T21:32:22.985Z,45.13
2018-11-01T21:37:26.873Z,41.03
2018-11-01T21:42:30.643Z,44.00
2018-11-01T21:47:34.383Z,56.10
2018-11-01T21:52:38.233Z,47.77
2018-11-01T21:57:43.033Z,41.67
2018-11-01T22:02:47.006Z,42.87
2018-11-01T22:07:51.085Z,50.90
2018-11-01T22:12:56.185Z,68.10
2018-11-01T22:18:00.114Z,36.53
2018-11-01T22:23:04.210Z,35.13
2018-11-01T22:28:08.458Z,39.60
2018-11-01T22:33:11.977Z,46.00
2018-11-01T22:38:15.671Z,65.00
2018-11-01T22:43:19.776Z,61.77
2018-11-01T22:48:23.357Z,66.53
2018-11-01T22:53:27.038Z,76.57
2018-11-01T22:58:31.175Z,68.03
2018-11-01T23:03:35.523Z,83.57
2018-11-01T23:08:39.985Z,88.03
2018-11-01T23:13:43.848Z,81.50
2018-11-01T23:18:47.193Z,80.53
2018-11-01T23:23:51.489Z,56.67
2018-11-01T23:28:54.971Z,66.30
2018-11-01T23:33:58.233Z,25.73
2018-11-01T23:39:07.456Z,44.53
2018-11-01T23:44:16.615Z,29.17
2018-11-01T23:49:23.199Z,31.63
2018-11-01T23:54:27.327Z,30.17
2018-11-01T23:59:30.690Z,27.90
